Turis, Spain
Current Conditions -  °F | °C
As of 3:00 PM on Sunday 25 Jan 2015 (Local Time) from LEVC Reporting Station
Clear Clear  
Wind Chill: 64°   Ceiling: Unl
Heat Index: 64°   Visibility: 6mi
Dew Point: 16°   Wind: 9mph
Humidity: 15%   Direction: 300°WNW
Pressure: 30.15"   Gusts: NA
Location:  39.38°N, 0.7°W
Report Text: LEVC 251400Z 30008KT 280V350 CAVOK 18/M09 Q1021 NOSIG
Loading
Personal Weather Stations






























Interactive Weather Map New forecast layout! Learn more

10-Day Weather Forecast

Advertisements
Track Severe Weather on mobile